Terminal Aerodrome Forecast
Issued by NWS Charleston, WV

Home | Current Version | Previous Version | Text Only | Print | Product List | Glossary On
Versions: 1 2 3 4 5 6 7 8 9 10 11 12 13 14 15 16 17 18 19 20 21 22
913
FTUS41 KRLX 010232 AAA
TAFBKW
TAF AMD
KBKW 010232Z 0103/0124 16011KT P6SM FEW250
     FM010900 18013G18KT P6SM SCT080 BKN200
     FM011500 21014G27KT P6SM BKN080
     FM011700 22016G29KT 3SM TSRA SCT020 OVC035CB
     FM012000 24015G28KT P6SM BKN050=

USA.gov is the U.S. government's official web portal to all federal, state and local government web resources and services.